Time;durP1;ratioP1;P1;durP2;ratioP2;P2;SDS_P1;SDS_P2;PMS_P1;PMS_P2;Temp;Humidity;BMP_temperature;BMP_pressure;BME280_temperature;BME280_humidity;BME280_pressure;Samples;Min_cycle;Max_cycle;Signal;HPM_P1;HPM_P2
2022/11/21 00:00:49;;;;;;;394.40;367.83;;;5.30;29.10;;;;;;5097895;28;20416;-72
2022/11/21 00:03:14;;;;;;;285.97;266.93;;;5.40;29.40;;;;;;5097424;28;20541;-72
2022/11/21 00:05:48;;;;;;;334.50;312.90;;;5.20;28.90;;;;;;5097253;28;20500;-72
2022/11/21 00:08:16;;;;;;;358.93;335.13;;;5.20;29.30;;;;;;5094680;28;20533;-72
2022/11/21 00:10:42;;;;;;;457.93;424.67;;;5.30;29.90;;;;;;5093441;28;20490;-72
2022/11/21 00:13:13;;;;;;;248.63;230.20;;;5.20;29.40;;;;;;5075590;28;20530;-72
2022/11/21 00:15:38;;;;;;;266.80;248.57;;;5.10;29.30;;;;;;5075568;28;20181;-72
2022/11/21 00:18:04;;;;;;;321.20;300.43;;;5.10;30.30;;;;;;5093762;28;20426;-72
2022/11/21 00:20:30;;;;;;;173.17;159.73;;;5.20;30.30;;;;;;5093463;28;20238;-72
2022/11/21 00:22:56;;;;;;;272.50;253.23;;;5.10;30.80;;;;;;5093487;28;20961;-72
2022/11/21 00:25:21;;;;;;;303.30;283.47;;;5.00;31.30;;;;;;5091638;28;20547;-72
2022/11/21 00:27:47;;;;;;;319.10;296.20;;;5.00;31.30;;;;;;5076274;28;20203;-72
2022/11/21 00:30:13;;;;;;;237.27;220.70;;;5.00;31.20;;;;;;5093977;28;20183;-72
2022/11/21 00:32:39;;;;;;;369.97;345.20;;;5.10;30.80;;;;;;5093708;28;20235;-72
2022/11/21 00:35:05;;;;;;;435.80;407.43;;;5.10;31.10;;;;;;5093513;28;21165;-72
2022/11/21 00:37:32;;;;;;;355.73;332.17;;;5.20;30.90;;;;;;5093466;28;20574;-71
2022/11/21 00:39:58;;;;;;;252.30;234.07;;;5.20;30.00;;;;;;5094967;28;20407;-72
2022/11/21 00:42:24;;;;;;;467.77;436.77;;;5.20;28.90;;;;;;5093591;28;20840;-72
2022/11/21 00:44:50;;;;;;;270.07;250.97;;;5.10;29.30;;;;;;5075604;28;20495;-72
2022/11/21 00:47:16;;;;;;;345.10;322.27;;;5.00;29.30;;;;;;5075363;28;20203;-71
2022/11/21 00:49:41;;;;;;;334.80;310.43;;;4.90;29.40;;;;;;5093385;28;20173;-72
2022/11/21 00:52:07;;;;;;;368.40;343.87;;;4.90;29.60;;;;;;5075121;28;20937;-72
2022/11/21 00:54:32;;;;;;;556.53;519.53;;;4.80;29.30;;;;;;5093216;28;20177;-72
2022/11/21 00:56:58;;;;;;;530.87;491.50;;;4.70;29.60;;;;;;5093210;28;20195;-72
2022/11/21 00:59:23;;;;;;;357.90;333.27;;;4.70;29.30;;;;;;5092968;28;20180;-72
2022/11/21 01:01:49;;;;;;;255.77;237.03;;;4.70;29.90;;;;;;5092858;28;20180;-71
2022/11/21 01:04:14;;;;;;;172.20;158.43;;;4.70;29.60;;;;;;5074401;28;20204;-71
2022/11/21 01:06:40;;;;;;;304.30;285.90;;;4.60;29.40;;;;;;5092959;28;20183;-71
2022/11/21 01:09:06;;;;;;;337.57;315.23;;;4.60;29.70;;;;;;5074703;28;20184;-71
2022/11/21 01:11:31;;;;;;;576.43;539.33;;;4.50;30.00;;;;;;5092828;28;20170;-71
2022/11/21 01:13:57;;;;;;;288.67;268.40;;;4.60;30.30;;;;;;5092541;28;20205;-71
2022/11/21 01:16:25;;;;;;;479.07;447.90;;;4.60;30.10;;;;;;5092882;28;20266;-71
2022/11/21 01:18:51;;;;;;;442.10;413.50;;;4.60;30.00;;;;;;5074613;28;20405;-71
2022/11/21 01:21:18;;;;;;;315.77;293.17;;;4.70;29.50;;;;;;5092876;28;20180;-71
2022/11/21 01:23:44;;;;;;;205.10;189.73;;;4.80;29.60;;;;;;5092346;28;20192;-71
2022/11/21 01:26:12;;;;;;;294.07;274.13;;;4.90;28.50;;;;;;5093305;28;20464;-71
2022/11/21 01:28:38;;;;;;;299.23;277.53;;;5.00;28.40;;;;;;5092513;28;20568;-71
2022/11/21 01:31:06;;;;;;;254.97;236.33;;;5.10;28.40;;;;;;5093011;28;20420;-71
2022/11/21 01:33:31;;;;;;;215.97;199.23;;;5.20;27.00;;;;;;5074886;28;20703;-71
2022/11/21 01:36:15;;;;;;;205.97;190.57;;;5.30;27.00;;;;;;5092182;28;20551;-70
2022/11/21 01:38:46;;;;;;;449.37;419.40;;;5.30;26.30;;;;;;5092212;28;20422;-70
2022/11/21 01:41:14;;;;;;;478.77;447.10;;;5.40;25.90;;;;;;5092220;28;20506;-70
2022/11/21 01:43:40;;;;;;;314.23;293.00;;;5.40;26.40;;;;;;5092148;28;20441;-71
2022/11/21 01:46:22;;;;;;;281.73;262.97;;;5.50;26.20;;;;;;5092033;28;20442;-71
2022/11/21 01:49:03;;;;;;;455.30;425.27;;;5.60;26.90;;;;;;5073945;28;20518;-71
2022/11/21 01:51:34;;;;;;;365.87;341.43;;;5.60;26.10;;;;;;5092426;28;20399;-71
2022/11/21 01:54:04;;;;;;;205.13;189.80;;;5.60;26.90;;;;;;5091914;28;20427;-71
2022/11/21 01:56:37;;;;;;;318.07;296.17;;;5.60;27.10;;;;;;5092653;28;20443;-71
2022/11/21 01:59:05;;;;;;;537.43;501.87;;;5.70;27.30;;;;;;5092236;28;20388;-71
2022/11/21 02:01:33;;;;;;;205.47;190.23;;;5.70;27.20;;;;;;5092266;28;20435;-71
2022/11/21 02:04:01;;;;;;;316.90;295.27;;;5.60;26.70;;;;;;5092768;28;20519;-71
2022/11/21 02:06:28;;;;;;;272.70;252.00;;;5.60;26.90;;;;;;5074200;28;20422;-70
2022/11/21 02:08:54;;;;;;;247.33;229.37;;;5.60;27.50;;;;;;5074294;28;20938;-70
2022/11/21 02:11:41;;;;;;;292.97;273.23;;;5.60;27.50;;;;;;5073915;28;20492;-71
2022/11/21 02:14:07;;;;;;;201.17;186.87;;;5.70;27.30;;;;;;5074430;28;20450;-71
2022/11/21 02:16:33;;;;;;;473.63;442.67;;;5.70;27.70;;;;;;5092364;28;20471;-73
2022/11/21 02:18:59;;;;;;;248.33;232.30;;;5.80;27.70;;;;;;5093469;28;20461;-72
2022/11/21 02:21:31;;;;;;;359.57;334.87;;;5.80;27.80;;;;;;5093849;28;20419;-72
2022/11/21 02:24:08;;;;;;;496.23;461.40;;;5.80;28.90;;;;;;5094279;28;20204;-72
2022/11/21 02:26:34;;;;;;;322.53;301.03;;;5.80;28.50;;;;;;5098004;28;20408;-72
2022/11/21 02:29:00;;;;;;;280.50;260.27;;;5.70;28.80;;;;;;5100518;28;20514;-72
2022/11/21 02:31:25;;;;;;;227.93;211.30;;;5.70;28.40;;;;;;5101315;28;20435;-70
2022/11/21 02:33:51;;;;;;;392.77;366.60;;;5.60;28.80;;;;;;5084037;28;20213;-70
2022/11/21 02:36:33;;;;;;;326.43;302.77;;;5.60;28.80;;;;;;5082259;28;20180;-69
2022/11/21 02:38:59;;;;;;;222.93;207.03;;;5.60;28.80;;;;;;5100599;28;20177;-71
2022/11/21 02:41:28;;;;;;;332.97;311.17;;;5.50;28.70;;;;;;5098629;28;20493;-71
2022/11/21 02:44:10;;;;;;;386.57;360.70;;;5.60;29.80;;;;;;5093809;28;20435;-71
2022/11/21 02:46:44;;;;;;;341.87;317.53;;;5.50;28.70;;;;;;5074963;28;20434;-71
2022/11/21 02:49:10;;;;;;;310.07;288.13;;;5.60;29.20;;;;;;5094439;28;20405;-71
2022/11/21 02:51:35;;;;;;;458.23;426.73;;;5.60;28.90;;;;;;5079373;28;20510;-70
2022/11/21 02:54:01;;;;;;;424.17;394.17;;;5.60;29.70;;;;;;5101208;28;20204;-70
2022/11/21 02:56:27;;;;;;;298.13;277.83;;;5.60;29.20;;;;;;5095382;28;20247;-68
2022/11/21 02:58:52;;;;;;;313.43;292.00;;;5.60;29.60;;;;;;5095025;28;20260;-70
2022/11/21 03:01:18;;;;;;;444.77;416.43;;;5.50;29.50;;;;;;5094869;28;20208;-70
2022/11/21 03:03:43;;;;;;;187.47;173.73;;;5.50;30.00;;;;;;5094949;28;20192;-70
2022/11/21 03:06:09;;;;;;;419.90;392.07;;;5.40;30.40;;;;;;5076739;28;20939;-70
2022/11/21 03:08:34;;;;;;;416.43;386.70;;;5.40;31.10;;;;;;5094767;28;20180;-70
2022/11/21 03:11:00;;;;;;;426.00;392.70;;;5.40;30.80;;;;;;5076529;28;20188;-70
2022/11/21 03:13:25;;;;;;;452.67;423.20;;;5.20;31.20;;;;;;5094590;28;20246;-70
2022/11/21 03:15:51;;;;;;;370.70;347.53;;;5.10;31.90;;;;;;5094591;28;20219;-70
2022/11/21 03:18:17;;;;;;;388.10;362.77;;;5.10;31.90;;;;;;5076436;28;20208;-68
2022/11/21 03:20:42;;;;;;;436.07;406.33;;;5.10;31.60;;;;;;5076488;28;20179;-69
2022/11/21 03:23:08;;;;;;;244.70;226.33;;;5.10;31.90;;;;;;5094320;28;20207;-69
2022/11/21 03:25:33;;;;;;;455.93;426.40;;;5.10;31.80;;;;;;5094338;28;20208;-69
2022/11/21 03:27:59;;;;;;;344.53;322.00;;;5.10;31.30;;;;;;5076158;28;20176;-69
2022/11/21 03:30:26;;;;;;;236.60;218.60;;;5.20;31.40;;;;;;5094145;28;20280;-69
2022/11/21 03:32:55;;;;;;;376.87;351.33;;;5.20;31.60;;;;;;5094203;28;20303;-69
2022/11/21 03:35:20;;;;;;;298.30;277.00;;;5.20;30.90;;;;;;5094168;28;20414;-69
2022/11/21 03:37:47;;;;;;;350.30;326.27;;;5.20;30.90;;;;;;5094125;28;20442;-68
2022/11/21 03:40:13;;;;;;;442.20;411.77;;;5.20;29.80;;;;;;5076037;28;20664;-68
2022/11/21 03:42:38;;;;;;;495.60;461.77;;;5.10;29.90;;;;;;5093974;28;20498;-69
2022/11/21 03:45:04;;;;;;;405.40;377.30;;;5.10;29.70;;;;;;5075804;28;20593;-69
2022/11/21 03:47:30;;;;;;;405.87;379.70;;;5.20;30.10;;;;;;5075856;28;20239;-69
2022/11/21 03:49:56;;;;;;;537.73;502.30;;;5.20;29.60;;;;;;5075798;28;20818;-69
2022/11/21 03:52:21;;;;;;;378.17;354.47;;;5.20;28.80;;;;;;5075600;28;20291;-69
2022/11/21 03:54:47;;;;;;;510.10;478.67;;;5.30;30.00;;;;;;5093926;28;20259;-69
2022/11/21 03:57:12;;;;;;;441.77;412.83;;;5.30;29.10;;;;;;5093983;28;20798;-69
2022/11/21 03:59:38;;;;;;;415.90;389.93;;;5.40;29.20;;;;;;5093442;28;20264;-69
2022/11/21 04:02:03;;;;;;;531.87;498.33;;;5.40;28.60;;;;;;5093130;28;20546;-69
2022/11/21 04:04:29;;;;;;;234.73;217.60;;;5.40;29.10;;;;;;5093909;28;20247;-69
2022/11/21 04:06:54;;;;;;;266.30;247.83;;;5.40;28.30;;;;;;5093955;28;20271;-70
2022/11/21 04:09:20;;;;;;;358.17;335.70;;;5.50;28.70;;;;;;5094079;28;20177;-69
2022/11/21 04:11:45;;;;;;;248.20;231.67;;;5.50;28.10;;;;;;5093765;28;20662;-69
2022/11/21 04:14:11;;;;;;;590.80;550.40;;;5.40;28.60;;;;;;5093775;28;20265;-70
2022/11/21 04:16:36;;;;;;;378.13;353.50;;;5.40;28.30;;;;;;5093835;28;20645;-69
2022/11/21 04:19:02;;;;;;;376.00;350.50;;;5.30;28.60;;;;;;5093833;28;20208;-69
2022/11/21 04:21:27;;;;;;;233.70;215.53;;;5.30;28.60;;;;;;5093613;28;20646;-69
2022/11/21 04:23:53;;;;;;;403.53;374.33;;;5.30;28.60;;;;;;5093144;28;20676;-69
2022/11/21 04:26:18;;;;;;;241.80;223.97;;;5.20;28.50;;;;;;5093655;28;20184;-69
2022/11/21 04:28:44;;;;;;;541.60;503.00;;;5.20;28.50;;;;;;5093761;28;20192;-69
2022/11/21 04:31:10;;;;;;;453.47;423.10;;;5.10;28.80;;;;;;5093776;28;20173;-69
2022/11/21 04:33:35;;;;;;;267.13;247.53;;;5.10;28.40;;;;;;5105747;28;20208;-69
2022/11/21 04:36:01;;;;;;;472.57;441.93;;;5.10;28.40;;;;;;5113883;28;20179;-69
2022/11/21 04:38:26;;;;;;;315.27;294.67;;;5.00;28.40;;;;;;5095088;28;20184;-69
2022/11/21 04:40:52;;;;;;;349.03;326.00;;;4.80;28.30;;;;;;5113337;28;20200;-69
2022/11/21 04:43:17;;;;;;;378.23;353.77;;;4.70;29.20;;;;;;5113265;28;20957;-69
2022/11/21 04:45:43;;;;;;;298.93;278.80;;;4.60;28.40;;;;;;5094706;28;20704;-69
2022/11/21 04:48:09;;;;;;;508.10;474.67;;;4.50;29.50;;;;;;5113223;28;20223;-69
2022/11/21 04:50:35;;;;;;;484.27;451.30;;;4.60;29.40;;;;;;5113169;28;20647;-69
2022/11/21 04:53:00;;;;;;;319.53;297.00;;;4.60;29.80;;;;;;5112983;28;20447;-69
2022/11/21 04:55:29;;;;;;;419.53;390.13;;;4.70;28.70;;;;;;5113202;28;20638;-69
2022/11/21 04:57:54;;;;;;;446.60;419.50;;;4.70;28.20;;;;;;5113401;28;20639;-69
2022/11/21 05:00:20;;;;;;;431.33;402.37;;;4.80;28.90;;;;;;5094850;28;20574;-68
2022/11/21 05:02:46;;;;;;;565.00;530.27;;;4.80;28.50;;;;;;5112888;28;20679;-69
2022/11/21 05:05:12;;;;;;;231.23;214.47;;;4.90;28.90;;;;;;5094573;28;20226;-69
2022/11/21 05:07:38;;;;;;;239.97;223.07;;;4.90;28.30;;;;;;5094557;28;20410;-69
2022/11/21 05:10:05;;;;;;;322.37;301.37;;;4.80;28.80;;;;;;5112874;28;20176;-69
2022/11/21 05:15:14;;;;;;;510.20;476.30;;;4.60;29.10;;;;;;5112980;28;20760;-69
2022/11/21 05:17:40;;;;;;;305.60;285.33;;;4.60;29.40;;;;;;5112736;28;20418;-69
2022/11/21 05:20:06;;;;;;;305.73;286.03;;;4.60;28.40;;;;;;5112806;28;20253;-69
2022/11/21 05:22:31;;;;;;;218.87;203.37;;;4.40;29.10;;;;;;5112556;28;20207;-69
2022/11/21 05:24:57;;;;;;;217.33;202.00;;;4.40;29.70;;;;;;5094359;28;20465;-69
2022/11/21 05:27:22;;;;;;;440.00;411.07;;;4.30;30.00;;;;;;5112700;28;20214;-69
2022/11/21 05:29:48;;;;;;;229.43;214.20;;;4.30;29.90;;;;;;5113113;28;20539;-69
2022/11/21 05:32:14;;;;;;;216.27;200.73;;;4.30;29.30;;;;;;5132890;22;20304;-70
2022/11/21 05:34:39;;;;;;;302.33;281.43;;;4.30;31.00;;;;;;5071646;28;20300;-69
2022/11/21 05:37:05;;;;;;;366.23;343.27;;;4.40;30.80;;;;;;5071780;28;20255;-71
2022/11/21 05:39:30;;;;;;;476.97;447.80;;;4.40;30.10;;;;;;5072127;28;20184;-71
2022/11/21 05:41:56;;;;;;;245.80;228.67;;;4.50;30.10;;;;;;5072092;28;20180;-71
2022/11/21 05:44:21;;;;;;;361.10;336.83;;;4.50;30.30;;;;;;5091060;28;20204;-71
2022/11/21 05:46:47;;;;;;;282.97;264.60;;;4.50;29.60;;;;;;5092060;28;20546;-69
2022/11/21 05:49:13;;;;;;;374.73;349.77;;;4.50;30.00;;;;;;5091829;28;20181;-68
2022/11/21 05:51:38;;;;;;;264.30;247.50;;;4.50;29.60;;;;;;5091743;28;20172;-71
2022/11/21 05:54:04;;;;;;;285.23;266.03;;;4.50;29.60;;;;;;5091451;28;20433;-71
2022/11/21 05:56:30;;;;;;;556.07;518.50;;;4.50;29.50;;;;;;5073538;28;20274;-71
2022/11/21 05:58:57;;;;;;;296.20;274.87;;;4.50;29.40;;;;;;5092058;28;20408;-71
2022/11/21 06:04:08;;;;;;;349.70;325.52;;;4.60;29.30;;;;;;5091324;28;20429;-71
2022/11/21 06:06:35;;;;;;;282.02;261.67;;;4.60;29.50;;;;;;5091577;28;20175;-71
2022/11/21 06:09:00;;;;;;;201.33;185.53;;;4.60;28.80;;;;;;5091531;28;20283;-71
2022/11/21 06:11:26;;;;;;;354.57;328.93;;;4.50;29.00;;;;;;5091502;28;20418;-71
2022/11/21 06:13:52;;;;;;;447.47;417.30;;;4.60;29.00;;;;;;5091153;28;20433;-71
2022/11/21 06:16:19;;;;;;;311.43;288.63;;;4.50;28.80;;;;;;5091934;28;20205;-71
2022/11/21 06:18:47;;;;;;;426.70;400.00;;;4.40;29.20;;;;;;5091478;28;20421;-69
2022/11/21 06:21:15;;;;;;;210.27;194.67;;;4.50;29.50;;;;;;5091452;28;20618;-69
2022/11/21 06:23:41;;;;;;;371.33;345.23;;;4.40;30.00;;;;;;5073876;28;20470;-71
2022/11/21 06:26:10;;;;;;;499.93;469.47;;;4.40;29.90;;;;;;5095441;28;20545;-69
2022/11/21 06:28:39;;;;;;;424.00;394.93;;;4.40;29.70;;;;;;5095314;28;20669;-69
2022/11/21 06:31:07;;;;;;;252.80;235.17;;;4.50;29.70;;;;;;5095398;28;20452;-72
2022/11/21 06:33:33;;;;;;;207.93;191.50;;;4.60;29.30;;;;;;5094823;28;20524;-72
2022/11/21 06:36:25;;;;;;;475.23;445.43;;;4.50;29.10;;;;;;5095242;28;20421;-68
2022/11/21 06:38:53;;;;;;;533.53;503.00;;;4.50;28.70;;;;;;5091304;28;20438;-70
2022/11/21 06:41:22;;;;;;;336.03;314.40;;;4.50;28.60;;;;;;5095105;28;20415;-70
2022/11/21 06:43:47;;;;;;;204.80;190.13;;;4.60;28.60;;;;;;5094919;28;20438;-70
2022/11/21 06:46:14;;;;;;;277.43;257.60;;;4.70;29.00;;;;;;5095298;28;20485;-69
2022/11/21 06:48:40;;;;;;;223.77;206.90;;;4.80;28.30;;;;;;5094919;28;20185;-69
2022/11/21 06:51:16;;;;;;;436.97;406.80;;;4.80;28.60;;;;;;5076727;28;20748;-69
2022/11/21 06:53:42;;;;;;;261.23;243.27;;;5.00;28.40;;;;;;5094468;28;20852;-69
2022/11/21 06:56:08;;;;;;;178.03;164.07;;;4.90;28.30;;;;;;5094883;28;20419;-70
2022/11/21 06:58:33;;;;;;;490.57;457.57;;;4.90;28.30;;;;;;5094888;28;20188;-70
2022/11/21 07:01:04;;;;;;;195.53;181.13;;;4.90;28.30;;;;;;5094957;28;20560;-70
2022/11/21 07:03:30;;;;;;;282.97;262.73;;;4.90;28.30;;;;;;5094585;28;20284;-70
2022/11/21 07:05:59;;;;;;;443.13;415.40;;;5.00;28.90;;;;;;5094718;28;20589;-70
2022/11/21 07:08:26;;;;;;;314.63;292.43;;;5.10;29.00;;;;;;5094668;28;20282;-71
2022/11/21 07:10:51;;;;;;;359.43;334.70;;;5.20;29.00;;;;;;5094572;28;20413;-70
2022/11/21 07:13:23;;;;;;;426.20;395.57;;;5.20;29.20;;;;;;5094374;28;20430;-70
2022/11/21 07:15:54;;;;;;;326.63;305.80;;;5.30;28.60;;;;;;5094613;28;20331;-70
2022/11/21 07:18:21;;;;;;;341.77;318.20;;;5.40;28.60;;;;;;5094472;28;20541;-69
2022/11/21 07:20:47;;;;;;;503.80;471.13;;;5.40;28.30;;;;;;5094326;28;20925;-70
2022/11/21 07:23:14;;;;;;;530.20;493.63;;;5.40;28.10;;;;;;5094020;28;20431;-70
2022/11/21 07:25:40;;;;;;;286.90;266.30;;;5.40;28.60;;;;;;5094334;28;20490;-70
2022/11/21 07:28:07;;;;;;;285.20;266.03;;;5.50;28.70;;;;;;5094424;28;20917;-70
2022/11/21 07:30:34;;;;;;;279.57;260.70;;;5.60;28.20;;;;;;5094361;28;20419;-73
2022/11/21 07:33:02;;;;;;;517.57;477.43;;;5.70;28.20;;;;;;5093658;28;20487;-71
2022/11/21 07:35:28;;;;;;;180.03;165.50;;;5.70;27.60;;;;;;5094002;28;20442;-70
2022/11/21 07:37:53;;;;;;;435.63;399.90;;;5.80;27.50;;;;;;5094136;28;20416;-70
2022/11/21 07:40:20;;;;;;;527.93;490.53;;;5.80;26.90;;;;;;5075904;28;20779;-69
2022/11/21 07:42:46;;;;;;;167.30;154.30;;;5.80;26.30;;;;;;5075497;28;20431;-69
2022/11/21 07:45:12;;;;;;;198.73;182.87;;;5.70;25.70;;;;;;5093909;28;20962;-70
2022/11/21 07:47:38;;;;;;;367.77;341.83;;;5.70;26.20;;;;;;5101330;28;20504;-72
2022/11/21 07:50:05;;;;;;;479.17;446.17;;;5.70;26.60;;;;;;5093899;28;20419;-71
2022/11/21 07:52:30;;;;;;;423.17;395.80;;;5.70;26.70;;;;;;5112774;28;20204;-70
2022/11/21 07:54:56;;;;;;;330.57;307.63;;;5.60;27.10;;;;;;5114245;28;20447;-70
2022/11/21 07:57:22;;;;;;;330.93;308.53;;;5.60;28.10;;;;;;5114487;28;20264;-71
2022/11/21 07:59:48;;;;;;;313.30;293.07;;;5.70;27.50;;;;;;5101616;28;20235;-71
2022/11/21 08:02:21;;;;;;;190.17;174.80;;;5.70;27.30;;;;;;5093497;28;20512;-71
2022/11/21 08:04:47;;;;;;;278.40;258.57;;;5.80;27.40;;;;;;5094511;28;20217;-71
2022/11/21 08:07:14;;;;;;;248.50;231.07;;;5.90;27.20;;;;;;5093650;28;20764;-71
2022/11/21 08:09:40;;;;;;;447.03;417.17;;;6.00;27.10;;;;;;5080287;28;20759;-71
2022/11/21 08:12:06;;;;;;;225.90;208.53;;;6.30;26.10;;;;;;5105599;28;20532;-71
2022/11/21 08:14:32;;;;;;;313.80;290.33;;;6.40;24.80;;;;;;5094427;28;20197;-71
2022/11/21 08:16:58;;;;;;;321.60;298.87;;;6.60;25.50;;;;;;5086480;28;20415;-71
2022/11/21 08:19:23;;;;;;;482.30;450.20;;;6.70;23.50;;;;;;5075120;28;20503;-71
2022/11/21 08:21:49;;;;;;;172.43;158.37;;;6.60;22.80;;;;;;5092853;28;20189;-71
2022/11/21 08:24:16;;;;;;;506.00;471.90;;;6.50;23.30;;;;;;5093160;28;20674;-71
2022/11/21 08:26:43;;;;;;;250.77;232.07;;;6.50;22.70;;;;;;5092958;28;20263;-71
2022/11/21 08:29:14;;;;;;;190.20;175.30;;;6.40;23.50;;;;;;5093055;28;20412;-71
2022/11/21 08:31:40;;;;;;;436.67;407.50;;;6.30;23.80;;;;;;5093057;28;20468;-71
2022/11/21 08:34:06;;;;;;;437.40;406.07;;;6.30;24.00;;;;;;5092588;28;20943;-72
2022/11/21 08:36:31;;;;;;;290.93;271.00;;;6.30;23.00;;;;;;5092887;28;20859;-72
2022/11/21 08:38:57;;;;;;;412.80;385.13;;;6.30;23.20;;;;;;5092906;28;20454;-71
2022/11/21 08:44:07;;;;;;;347.70;326.33;;;6.60;23.40;;;;;;5092215;28;20702;-72
2022/11/21 08:46:36;;;;;;;372.60;347.50;;;6.90;22.30;;;;;;5091801;28;20451;-72
2022/11/21 08:49:02;;;;;;;233.63;216.47;;;7.20;21.00;;;;;;5083460;28;20433;-72
2022/11/21 08:51:28;;;;;;;460.60;433.50;;;7.30;20.30;;;;;;5102894;28;20416;-70
2022/11/21 08:53:53;;;;;;;541.73;506.97;;;7.40;20.00;;;;;;5074001;28;20498;-71
2022/11/21 08:56:19;;;;;;;402.07;373.73;;;7.50;20.00;;;;;;5086714;28;20296;-71
2022/11/21 08:58:44;;;;;;;306.07;285.53;;;7.30;20.00;;;;;;5095898;28;20941;-71
2022/11/21 09:01:10;;;;;;;390.70;366.43;;;7.50;20.50;;;;;;5092055;28;20184;-70
2022/11/21 09:03:35;;;;;;;174.97;161.67;;;7.70;19.70;;;;;;5090490;28;20675;-70
2022/11/21 09:06:01;;;;;;;411.90;385.53;;;7.80;19.20;;;;;;5092272;28;20240;-71
2022/11/21 09:08:28;;;;;;;455.50;427.33;;;7.80;18.70;;;;;;5092185;28;20273;-71
2022/11/21 09:10:54;;;;;;;543.77;508.23;;;7.60;18.40;;;;;;5092270;28;20589;-69
2022/11/21 09:13:20;;;;;;;402.23;374.97;;;7.50;18.50;;;;;;5110331;28;20530;-69
2022/11/21 09:18:29;;;;;;;344.63;323.73;;;8.10;17.80;;;;;;5106791;28;20193;-70
2022/11/21 09:20:55;;;;;;;282.33;263.83;;;8.10;17.20;;;;;;5091962;28;20418;-71
2022/11/21 09:23:20;;;;;;;370.87;346.63;;;8.00;17.70;;;;;;5098289;28;20548;-71
2022/11/21 09:25:47;;;;;;;505.83;473.90;;;7.80;16.80;;;;;;5095032;28;20553;-71
2022/11/21 09:28:13;;;;;;;309.57;288.60;;;7.60;17.60;;;;;;5091971;28;20180;-71
2022/11/21 09:30:39;;;;;;;278.20;258.67;;;7.30;18.30;;;;;;5091936;28;20408;-71
2022/11/21 09:33:07;;;;;;;420.83;394.63;;;7.20;18.20;;;;;;5095978;28;20457;-67
2022/11/21 09:35:33;;;;;;;271.73;252.70;;;7.20;18.80;;;;;;5112009;28;20431;-70
2022/11/21 09:37:58;;;;;;;447.73;419.23;;;7.10;18.90;;;;;;5112273;28;20784;-70
2022/11/21 09:40:24;;;;;;;312.00;291.73;;;7.00;19.00;;;;;;5111863;28;20174;-70
2022/11/21 09:43:07;;;;;;;360.53;337.00;;;6.90;20.30;;;;;;5092613;28;20443;-70
2022/11/21 09:45:49;;;;;;;269.27;249.93;;;6.80;20.20;;;;;;5091812;28;20942;-71
2022/11/21 09:48:41;;;;;;;256.13;238.80;;;6.80;21.30;;;;;;5095870;28;20519;-70
2022/11/21 09:51:12;;;;;;;314.57;292.77;;;7.00;20.80;;;;;;5063442;28;20429;-71
2022/11/21 09:53:55;;;;;;;192.80;179.20;;;7.10;20.50;;;;;;5071246;28;20432;-70
2022/11/21 09:56:22;;;;;;;307.27;286.23;;;7.20;20.60;;;;;;5071584;28;20427;-70
2022/11/21 09:58:50;;;;;;;320.80;299.90;;;7.30;19.70;;;;;;5101019;28;20485;-71
2022/11/21 10:01:16;;;;;;;291.90;273.03;;;7.30;19.50;;;;;;5115730;28;20427;-70
2022/11/21 10:03:45;;;;;;;374.97;351.33;;;7.30;18.80;;;;;;5095679;28;20445;-70
2022/11/21 10:06:53;;;;;;;438.23;412.37;;;7.30;18.70;;;;;;5095731;28;20218;-69
2022/11/21 10:09:22;;;;;;;219.77;204.67;;;7.40;18.30;;;;;;5103718;28;20523;-70
2022/11/21 10:15:31;;;;;;;450.73;422.47;;;7.50;19.10;;;;;;5116148;28;20501;-71
2022/11/21 10:18:12;;;;;;;351.27;328.27;;;7.60;17.30;;;;;;5109388;28;20425;-71
2022/11/21 10:20:52;;;;;;;601.70;564.40;;;7.50;17.50;;;;;;5095501;28;20440;-70
2022/11/21 10:23:37;;;;;;;384.67;361.00;;;7.60;17.60;;;;;;5095106;28;20808;-70
2022/11/21 10:26:18;;;;;;;327.43;306.37;;;7.70;17.40;;;;;;5095346;28;20509;-71
2022/11/21 10:29:01;;;;;;;266.30;248.87;;;7.60;17.10;;;;;;5108052;28;20425;-72
2022/11/21 10:31:31;;;;;;;263.60;245.27;;;7.70;17.60;;;;;;5097806;28;20421;-70
2022/11/21 10:34:00;;;;;;;427.30;401.33;;;7.80;16.70;;;;;;5096952;28;20920;-70
2022/11/21 10:36:38;;;;;;;312.37;292.50;;;7.90;17.40;;;;;;5115653;28;20425;-70
2022/11/21 10:39:21;;;;;;;399.97;374.60;;;8.00;16.90;;;;;;5099975;28;20429;-70
2022/11/21 10:42:22;;;;;;;341.67;319.43;;;8.00;15.90;;;;;;5095070;28;20417;-70
2022/11/21 10:47:36;;;;;;;328.73;307.13;;;8.30;14.70;;;;;;5097021;28;20839;-70
2022/11/21 10:50:32;;;;;;;295.43;275.30;;;8.30;14.40;;;;;;5113578;28;20416;-70
2022/11/21 10:54:31;;;;;;;318.80;297.93;;;8.30;14.60;;;;;;5083112;28;20503;-73
2022/11/21 10:56:11;;;;;;;421.13;392.37;;;8.40;13.80;;;;;;5094840;28;20912;-71
2022/11/21 10:58:42;;;;;;;570.10;525.77;;;8.50;13.30;;;;;;5087235;28;20425;-72
2022/11/21 11:01:34;;;;;;;372.63;348.83;;;8.60;11.70;;;;;;5115082;28;20547;-71
2022/11/21 11:04:09;;;;;;;363.03;339.90;;;8.60;11.70;;;;;;5110176;28;20491;-71
2022/11/21 11:06:35;;;;;;;308.20;287.93;;;8.80;13.00;;;;;;5096805;28;20799;-71
2022/11/21 11:09:02;;;;;;;447.87;420.80;;;8.90;11.80;;;;;;5100697;28;20454;-72
2022/11/21 11:11:28;;;;;;;276.20;256.00;;;8.90;12.70;;;;;;5094584;28;20789;-71
2022/11/21 11:14:03;;;;;;;360.30;337.57;;;9.00;11.80;;;;;;5094312;28;20433;-72
2022/11/21 11:16:31;;;;;;;425.37;399.10;;;9.00;11.70;;;;;;5094638;28;20173;-72
2022/11/21 11:19:19;;;;;;;444.67;418.43;;;9.00;12.40;;;;;;5107141;28;20474;-71
2022/11/21 11:21:45;;;;;;;412.83;386.60;;;8.90;12.20;;;;;;5096126;28;20520;-70
2022/11/21 11:24:10;;;;;;;286.23;266.80;;;8.70;11.70;;;;;;5114518;28;20512;-69
2022/11/21 11:26:48;;;;;;;292.43;273.03;;;8.50;12.80;;;;;;5114581;28;20418;-70
2022/11/21 11:29:20;;;;;;;278.07;259.53;;;8.50;12.70;;;;;;5101591;28;20184;-70
2022/11/21 11:31:57;;;;;;;369.47;347.20;;;8.80;13.10;;;;;;5095359;28;20525;-71
2022/11/21 11:34:34;;;;;;;325.63;302.83;;;9.10;11.90;;;;;;5116077;22;20588;-71
2022/11/21 11:37:11;;;;;;;417.60;393.30;;;9.40;12.30;;;;;;5074738;28;20442;-71
2022/11/21 11:40:05;;;;;;;405.13;380.37;;;9.60;11.90;;;;;;5094035;28;20498;-73
2022/11/21 11:49:02;;;;;;;300.40;281.00;;;9.70;11.00;;;;;;5093769;28;20475;-71
2022/11/21 11:51:36;;;;;;;300.40;280.03;;;9.50;10.10;;;;;;5075961;28;20938;-73
2022/11/21 11:54:09;;;;;;;344.00;322.37;;;9.60;10.80;;;;;;5094239;28;20483;-73
2022/11/21 11:56:37;;;;;;;440.50;413.63;;;9.60;10.50;;;;;;5093750;28;20415;-73
2022/11/21 11:59:11;;;;;;;90.83;76.03;;;9.40;9.90;;;;;;5093644;28;20411;-73
2022/11/21 12:01:47;;;;;;;320.63;301.03;;;9.60;10.10;;;;;;5093647;28;20417;-73
2022/11/21 12:04:21;;;;;;;364.10;340.47;;;9.70;10.20;;;;;;5075196;28;20439;-74
2022/11/21 12:06:58;;;;;;;377.23;353.10;;;9.70;8.90;;;;;;5075534;28;20508;-73
2022/11/21 12:09:28;;;;;;;140.27;128.40;;;9.60;8.40;;;;;;5093743;28;20470;-73
2022/11/21 12:12:08;;;;;;;347.27;325.57;;;9.50;9.00;;;;;;5093457;28;20434;-73
2022/11/21 12:18:21;;;;;;;275.63;257.40;;;9.50;9.80;;;;;;5093476;28;20885;-73
2022/11/21 12:21:01;;;;;;;320.53;299.73;;;9.70;9.70;;;;;;5092959;28;20765;-73
2022/11/21 12:23:35;;;;;;;432.90;405.67;;;9.80;7.60;;;;;;5074836;28;20450;-73
2022/11/21 12:26:18;;;;;;;420.10;395.73;;;9.70;8.00;;;;;;5093293;28;20828;-73
2022/11/21 12:29:05;;;;;;;409.70;382.70;;;9.50;7.50;;;;;;5093312;28;20512;-73
2022/11/21 12:31:50;;;;;;;144.00;131.80;;;9.50;7.40;;;;;;5093034;28;20976;-73
2022/11/21 12:34:29;;;;;;;347.40;328.57;;;9.40;7.80;;;;;;5092830;28;20532;-74
2022/11/21 12:37:09;;;;;;;362.77;341.60;;;9.50;8.20;;;;;;5093149;28;20461;-73
2022/11/21 12:40:08;;;;;;;299.47;280.20;;;9.70;8.50;;;;;;5092965;28;20901;-73
2022/11/21 12:43:08;;;;;;;381.03;357.20;;;9.80;7.80;;;;;;5092637;28;20410;-73
2022/11/21 12:45:46;;;;;;;433.80;406.10;;;10.00;7.50;;;;;;5092815;28;20541;-73
2022/11/21 12:54:30;;;;;;;378.53;354.40;;;10.10;5.80;;;;;;5092761;28;20971;-73
2022/11/21 12:57:10;;;;;;;229.37;214.03;;;9.90;6.30;;;;;;5074563;28;20447;-73
2022/11/21 12:59:57;;;;;;;432.47;409.90;;;9.80;7.80;;;;;;5092620;28;20494;-70
2022/11/21 13:03:02;;;;;;;356.07;334.83;;;9.80;8.30;;;;;;5092069;28;20407;-71